sensor_id;sensor_type;location;lat;lon;timestamp;temperature;humidity
67005;HTU21D;53920;51.094;5.902;2023-04-22T00:00:29;8.65;84.55
67005;HTU21D;53920;51.094;5.902;2023-04-22T00:02:55;8.67;84.81
67005;HTU21D;53920;51.094;5.902;2023-04-22T00:05:21;8.67;85.04
67005;HTU21D;53920;51.094;5.902;2023-04-22T00:07:47;8.72;85.16
67005;HTU21D;53920;51.094;5.902;2023-04-22T00:10:13;8.76;85.76
67005;HTU21D;53920;51.094;5.902;2023-04-22T00:12:39;8.83;85.52
67005;HTU21D;53920;51.094;5.902;2023-04-22T00:15:05;8.90;84.98
67005;HTU21D;53920;51.094;5.902;2023-04-22T00:17:32;8.91;84.77
67005;HTU21D;53920;51.094;5.902;2023-04-22T00:19:57;8.95;85.03
67005;HTU21D;53920;51.094;5.902;2023-04-22T00:22:24;9.03;84.61
67005;HTU21D;53920;51.094;5.902;2023-04-22T00:24:50;9.05;84.29
67005;HTU21D;53920;51.094;5.902;2023-04-22T00:27:16;9.09;84.39
67005;HTU21D;53920;51.094;5.902;2023-04-22T00:29:42;9.14;84.18
67005;HTU21D;53920;51.094;5.902;2023-04-22T00:32:08;9.18;84.12
67005;HTU21D;53920;51.094;5.902;2023-04-22T00:34:34;9.20;84.26
67005;HTU21D;53920;51.094;5.902;2023-04-22T00:37:00;9.23;84.15
67005;HTU21D;53920;51.094;5.902;2023-04-22T00:39:26;9.23;83.70
67005;HTU21D;53920;51.094;5.902;2023-04-22T00:41:53;9.18;83.45
67005;HTU21D;53920;51.094;5.902;2023-04-22T00:44:21;9.12;83.53
67005;HTU21D;53920;51.094;5.902;2023-04-22T00:46:47;9.09;83.52
67005;HTU21D;53920;51.094;5.902;2023-04-22T00:49:14;9.11;83.97
67005;HTU21D;53920;51.094;5.902;2023-04-22T00:51:42;9.17;84.13
67005;HTU21D;53920;51.094;5.902;2023-04-22T00:54:07;9.21;84.26
67005;HTU21D;53920;51.094;5.902;2023-04-22T00:56:34;9.25;84.26
67005;HTU21D;53920;51.094;5.902;2023-04-22T00:59:03;9.29;83.93
67005;HTU21D;53920;51.094;5.902;2023-04-22T01:01:29;9.32;83.85
67005;HTU21D;53920;51.094;5.902;2023-04-22T01:03:55;9.33;83.78
67005;HTU21D;53920;51.094;5.902;2023-04-22T01:06:23;9.37;83.79
67005;HTU21D;53920;51.094;5.902;2023-04-22T01:08:49;9.36;83.58
67005;HTU21D;53920;51.094;5.902;2023-04-22T01:11:15;9.35;83.65
67005;HTU21D;53920;51.094;5.902;2023-04-22T01:13:41;9.35;83.69
67005;HTU21D;53920;51.094;5.902;2023-04-22T01:16:07;9.34;83.22
67005;HTU21D;53920;51.094;5.902;2023-04-22T01:18:35;9.25;83.10
67005;HTU21D;53920;51.094;5.902;2023-04-22T01:21:01;9.22;83.11
67005;HTU21D;53920;51.094;5.902;2023-04-22T01:23:28;9.19;83.23
67005;HTU21D;53920;51.094;5.902;2023-04-22T01:25:54;9.21;83.41
67005;HTU21D;53920;51.094;5.902;2023-04-22T01:28:22;9.22;83.61
67005;HTU21D;53920;51.094;5.902;2023-04-22T01:30:48;9.23;83.74
67005;HTU21D;53920;51.094;5.902;2023-04-22T01:33:15;9.26;83.80
67005;HTU21D;53920;51.094;5.902;2023-04-22T01:35:42;9.29;83.78
67005;HTU21D;53920;51.094;5.902;2023-04-22T01:38:11;9.27;83.44
67005;HTU21D;53920;51.094;5.902;2023-04-22T01:40:37;9.22;83.44
67005;HTU21D;53920;51.094;5.902;2023-04-22T01:43:04;9.22;83.74
67005;HTU21D;53920;51.094;5.902;2023-04-22T01:45:30;9.23;83.85
67005;HTU21D;53920;51.094;5.902;2023-04-22T01:47:56;9.24;83.40
67005;HTU21D;53920;51.094;5.902;2023-04-22T01:50:23;9.17;83.07
67005;HTU21D;53920;51.094;5.902;2023-04-22T01:52:49;9.14;83.33
67005;HTU21D;53920;51.094;5.902;2023-04-22T01:55:16;9.15;83.12
67005;HTU21D;53920;51.094;5.902;2023-04-22T01:57:43;9.14;83.05
67005;HTU21D;53920;51.094;5.902;2023-04-22T02:00:09;9.11;83.34
67005;HTU21D;53920;51.094;5.902;2023-04-22T02:02:38;9.09;83.42
67005;HTU21D;53920;51.094;5.902;2023-04-22T02:05:06;9.15;83.96
67005;HTU21D;53920;51.094;5.902;2023-04-22T02:07:32;9.16;83.68
67005;HTU21D;53920;51.094;5.902;2023-04-22T02:09:58;9.17;83.86
67005;HTU21D;53920;51.094;5.902;2023-04-22T02:12:24;9.19;83.96
67005;HTU21D;53920;51.094;5.902;2023-04-22T02:14:50;9.24;84.26
67005;HTU21D;53920;51.094;5.902;2023-04-22T02:17:19;9.27;84.33
67005;HTU21D;53920;51.094;5.902;2023-04-22T02:19:45;9.30;84.46
67005;HTU21D;53920;51.094;5.902;2023-04-22T02:22:11;9.36;84.19
67005;HTU21D;53920;51.094;5.902;2023-04-22T02:24:37;9.34;84.13
67005;HTU21D;53920;51.094;5.902;2023-04-22T02:27:03;9.37;84.31
67005;HTU21D;53920;51.094;5.902;2023-04-22T02:29:29;9.42;84.32
67005;HTU21D;53920;51.094;5.902;2023-04-22T02:32:00;9.47;84.41
67005;HTU21D;53920;51.094;5.902;2023-04-22T02:34:27;9.48;84.45
67005;HTU21D;53920;51.094;5.902;2023-04-22T02:36:53;9.50;84.50
67005;HTU21D;53920;51.094;5.902;2023-04-22T02:39:19;9.52;84.48
67005;HTU21D;53920;51.094;5.902;2023-04-22T02:41:45;9.53;84.42
67005;HTU21D;53920;51.094;5.902;2023-04-22T02:44:11;9.55;84.18
67005;HTU21D;53920;51.094;5.902;2023-04-22T02:46:37;9.54;83.87
67005;HTU21D;53920;51.094;5.902;2023-04-22T02:49:03;9.54;83.67
67005;HTU21D;53920;51.094;5.902;2023-04-22T02:51:29;9.52;83.30
67005;HTU21D;53920;51.094;5.902;2023-04-22T02:53:57;9.49;83.39
67005;HTU21D;53920;51.094;5.902;2023-04-22T02:56:23;9.50;83.68
67005;HTU21D;53920;51.094;5.902;2023-04-22T02:58:49;9.51;83.60
67005;HTU21D;53920;51.094;5.902;2023-04-22T03:01:15;9.51;83.35
67005;HTU21D;53920;51.094;5.902;2023-04-22T03:03:41;9.46;83.23
67005;HTU21D;53920;51.094;5.902;2023-04-22T03:06:09;9.45;83.20
67005;HTU21D;53920;51.094;5.902;2023-04-22T03:08:35;9.47;83.52
67005;HTU21D;53920;51.094;5.902;2023-04-22T03:11:03;9.48;83.78
67005;HTU21D;53920;51.094;5.902;2023-04-22T03:13:30;9.49;83.70
67005;HTU21D;53920;51.094;5.902;2023-04-22T03:15:56;9.45;83.50
67005;HTU21D;53920;51.094;5.902;2023-04-22T03:18:21;9.45;83.61
67005;HTU21D;53920;51.094;5.902;2023-04-22T03:20:48;9.47;83.84
67005;HTU21D;53920;51.094;5.902;2023-04-22T03:23:14;9.51;83.99
67005;HTU21D;53920;51.094;5.902;2023-04-22T03:25:40;9.54;83.94
67005;HTU21D;53920;51.094;5.902;2023-04-22T03:28:06;9.55;83.71
67005;HTU21D;53920;51.094;5.902;2023-04-22T03:30:33;9.53;83.50
67005;HTU21D;53920;51.094;5.902;2023-04-22T03:32:59;9.51;83.45
67005;HTU21D;53920;51.094;5.902;2023-04-22T03:35:34;9.51;83.76
67005;HTU21D;53920;51.094;5.902;2023-04-22T03:38:00;9.51;84.02
67005;HTU21D;53920;51.094;5.902;2023-04-22T03:40:31;9.51;83.61
67005;HTU21D;53920;51.094;5.902;2023-04-22T03:42:58;9.46;83.71
67005;HTU21D;53920;51.094;5.902;2023-04-22T03:45:24;9.47;83.71
67005;HTU21D;53920;51.094;5.902;2023-04-22T03:48:10;9.50;83.53
67005;HTU21D;53920;51.094;5.902;2023-04-22T03:50:42;9.52;83.63
67005;HTU21D;53920;51.094;5.902;2023-04-22T03:53:08;9.50;83.47
67005;HTU21D;53920;51.094;5.902;2023-04-22T03:55:34;9.48;83.32
67005;HTU21D;53920;51.094;5.902;2023-04-22T03:58:01;9.44;83.36
67005;HTU21D;53920;51.094;5.902;2023-04-22T04:00:26;9.42;83.41
67005;HTU21D;53920;51.094;5.902;2023-04-22T04:03:05;9.45;83.71
67005;HTU21D;53920;51.094;5.902;2023-04-22T04:05:31;9.46;84.00
67005;HTU21D;53920;51.094;5.902;2023-04-22T04:07:59;9.50;84.13
67005;HTU21D;53920;51.094;5.902;2023-04-22T04:10:25;9.56;84.26
67005;HTU21D;53920;51.094;5.902;2023-04-22T04:12:53;9.62;84.26
67005;HTU21D;53920;51.094;5.902;2023-04-22T04:15:21;9.62;84.29
67005;HTU21D;53920;51.094;5.902;2023-04-22T04:17:49;9.64;84.09
67005;HTU21D;53920;51.094;5.902;2023-04-22T04:20:17;9.64;83.97
67005;HTU21D;53920;51.094;5.902;2023-04-22T04:22:43;9.64;83.87
67005;HTU21D;53920;51.094;5.902;2023-04-22T04:25:10;9.61;84.25
67005;HTU21D;53920;51.094;5.902;2023-04-22T04:27:40;9.63;84.19
67005;HTU21D;53920;51.094;5.902;2023-04-22T04:30:10;9.64;84.18
67005;HTU21D;53920;51.094;5.902;2023-04-22T04:32:40;9.67;84.15
67005;HTU21D;53920;51.094;5.902;2023-04-22T04:35:10;9.71;84.34
67005;HTU21D;53920;51.094;5.902;2023-04-22T04:37:43;9.74;84.22
67005;HTU21D;53920;51.094;5.902;2023-04-22T04:40:09;9.77;84.34
67005;HTU21D;53920;51.094;5.902;2023-04-22T04:42:57;9.77;83.95
67005;HTU21D;53920;51.094;5.902;2023-04-22T04:45:30;9.74;84.07
67005;HTU21D;53920;51.094;5.902;2023-04-22T04:47:57;9.78;83.94
67005;HTU21D;53920;51.094;5.902;2023-04-22T04:50:30;9.76;84.01
67005;HTU21D;53920;51.094;5.902;2023-04-22T04:52:59;9.82;84.14
67005;HTU21D;53920;51.094;5.902;2023-04-22T04:55:32;9.89;84.20
67005;HTU21D;53920;51.094;5.902;2023-04-22T04:58:00;9.97;84.27
67005;HTU21D;53920;51.094;5.902;2023-04-22T05:00:26;10.06;84.26
67005;HTU21D;53920;51.094;5.902;2023-04-22T05:02:53;10.15;84.29
67005;HTU21D;53920;51.094;5.902;2023-04-22T05:05:19;10.25;84.15
67005;HTU21D;53920;51.094;5.902;2023-04-22T05:07:45;10.30;84.10
67005;HTU21D;53920;51.094;5.902;2023-04-22T05:10:13;10.30;84.13
67005;HTU21D;53920;51.094;5.902;2023-04-22T05:12:39;10.37;84.07
67005;HTU21D;53920;51.094;5.902;2023-04-22T05:15:08;10.42;83.98
67005;HTU21D;53920;51.094;5.902;2023-04-22T05:17:34;10.49;83.84
67005;HTU21D;53920;51.094;5.902;2023-04-22T05:20:00;10.53;83.41
67005;HTU21D;53920;51.094;5.902;2023-04-22T05:22:26;10.54;83.26
67005;HTU21D;53920;51.094;5.902;2023-04-22T05:24:52;10.53;83.02
67005;HTU21D;53920;51.094;5.902;2023-04-22T05:27:19;10.52;83.00
67005;HTU21D;53920;51.094;5.902;2023-04-22T05:29:45;10.57;82.89
67005;HTU21D;53920;51.094;5.902;2023-04-22T05:32:12;10.66;82.82
67005;HTU21D;53920;51.094;5.902;2023-04-22T05:34:39;10.70;82.52
67005;HTU21D;53920;51.094;5.902;2023-04-22T05:37:05;10.74;82.21
67005;HTU21D;53920;51.094;5.902;2023-04-22T05:39:34;10.79;82.08
67005;HTU21D;53920;51.094;5.902;2023-04-22T05:42:05;10.87;82.00
67005;HTU21D;53920;51.094;5.902;2023-04-22T05:44:31;10.93;82.07
67005;HTU21D;53920;51.094;5.902;2023-04-22T05:46:57;11.00;82.03
67005;HTU21D;53920;51.094;5.902;2023-04-22T05:49:25;11.09;81.93
67005;HTU21D;53920;51.094;5.902;2023-04-22T05:52:11;11.16;81.84
67005;HTU21D;53920;51.094;5.902;2023-04-22T05:54:58;11.25;81.76
67005;HTU21D;53920;51.094;5.902;2023-04-22T05:57:24;11.31;81.52
67005;HTU21D;53920;51.094;5.902;2023-04-22T05:59:51;11.40;81.36
67005;HTU21D;53920;51.094;5.902;2023-04-22T06:02:17;11.49;81.50
67005;HTU21D;53920;51.094;5.902;2023-04-22T06:04:42;11.59;81.47
67005;HTU21D;53920;51.094;5.902;2023-04-22T06:07:09;11.62;81.75
67005;HTU21D;53920;51.094;5.902;2023-04-22T06:09:35;11.74;81.63
67005;HTU21D;53920;51.094;5.902;2023-04-22T06:12:00;11.92;81.04
67005;HTU21D;53920;51.094;5.902;2023-04-22T06:14:27;12.03;80.73
67005;HTU21D;53920;51.094;5.902;2023-04-22T06:16:54;12.13;80.81
67005;HTU21D;53920;51.094;5.902;2023-04-22T06:19:20;12.18;80.63
67005;HTU21D;53920;51.094;5.902;2023-04-22T06:21:46;12.23;80.41
67005;HTU21D;53920;51.094;5.902;2023-04-22T06:24:12;12.30;80.21
67005;HTU21D;53920;51.094;5.902;2023-04-22T06:26:41;12.47;80.09
67005;HTU21D;53920;51.094;5.902;2023-04-22T06:29:07;12.77;79.61
67005;HTU21D;53920;51.094;5.902;2023-04-22T06:31:35;13.11;78.82
67005;HTU21D;53920;51.094;5.902;2023-04-22T06:34:01;13.47;77.89
67005;HTU21D;53920;51.094;5.902;2023-04-22T06:36:28;13.69;77.19
67005;HTU21D;53920;51.094;5.902;2023-04-22T06:38:58;13.69;77.07
67005;HTU21D;53920;51.094;5.902;2023-04-22T06:41:38;13.64;77.31
67005;HTU21D;53920;51.094;5.902;2023-04-22T06:44:14;13.64;77.56
67005;HTU21D;53920;51.094;5.902;2023-04-22T06:46:58;13.82;77.15
67005;HTU21D;53920;51.094;5.902;2023-04-22T06:49:47;14.01;76.58
67005;HTU21D;53920;51.094;5.902;2023-04-22T06:52:24;14.08;76.27
67005;HTU21D;53920;51.094;5.902;2023-04-22T06:54:53;14.06;76.56
67005;HTU21D;53920;51.094;5.902;2023-04-22T06:57:19;14.07;76.74
67005;HTU21D;53920;51.094;5.902;2023-04-22T06:59:45;14.26;76.33
67005;HTU21D;53920;51.094;5.902;2023-04-22T07:02:11;14.44;75.95
67005;HTU21D;53920;51.094;5.902;2023-04-22T07:04:38;14.68;76.08
67005;HTU21D;53920;51.094;5.902;2023-04-22T07:07:04;15.59;73.57
67005;HTU21D;53920;51.094;5.902;2023-04-22T07:09:31;17.04;68.68
67005;HTU21D;53920;51.094;5.902;2023-04-22T07:11:57;18.18;65.53
67005;HTU21D;53920;51.094;5.902;2023-04-22T07:14:25;19.15;62.27
67005;HTU21D;53920;51.094;5.902;2023-04-22T07:16:52;19.91;59.73
67005;HTU21D;53920;51.094;5.902;2023-04-22T07:19:18;20.69;57.42
67005;HTU21D;53920;51.094;5.902;2023-04-22T07:21:44;21.32;56.10
67005;HTU21D;53920;51.094;5.902;2023-04-22T07:24:10;21.46;56.04
67005;HTU21D;53920;51.094;5.902;2023-04-22T07:26:41;21.73;55.24
67005;HTU21D;53920;51.094;5.902;2023-04-22T07:29:08;22.17;54.01
67005;HTU21D;53920;51.094;5.902;2023-04-22T07:31:35;21.89;54.08
67005;HTU21D;53920;51.094;5.902;2023-04-22T07:34:01;22.01;54.42
67005;HTU21D;53920;51.094;5.902;2023-04-22T07:36:27;22.91;51.53
67005;HTU21D;53920;51.094;5.902;2023-04-22T07:38:54;23.40;49.91
67005;HTU21D;53920;51.094;5.902;2023-04-22T07:41:19;24.16;49.01
67005;HTU21D;53920;51.094;5.902;2023-04-22T07:43:45;25.02;46.95
67005;HTU21D;53920;51.094;5.902;2023-04-22T07:46:11;26.08;45.41
67005;HTU21D;53920;51.094;5.902;2023-04-22T07:48:37;26.28;44.96
67005;HTU21D;53920;51.094;5.902;2023-04-22T07:51:03;25.64;46.86
67005;HTU21D;53920;51.094;5.902;2023-04-22T07:53:29;24.84;48.25
67005;HTU21D;53920;51.094;5.902;2023-04-22T07:55:55;24.64;48.41
67005;HTU21D;53920;51.094;5.902;2023-04-22T07:58:21;24.86;48.28
67005;HTU21D;53920;51.094;5.902;2023-04-22T08:00:47;25.01;47.83
67005;HTU21D;53920;51.094;5.902;2023-04-22T08:03:13;25.31;46.57
67005;HTU21D;53920;51.094;5.902;2023-04-22T08:05:39;25.59;45.57
67005;HTU21D;53920;51.094;5.902;2023-04-22T08:08:05;25.97;44.93
67005;HTU21D;53920;51.094;5.902;2023-04-22T08:10:31;26.21;44.89
67005;HTU21D;53920;51.094;5.902;2023-04-22T08:12:57;26.25;44.95
67005;HTU21D;53920;51.094;5.902;2023-04-22T08:15:23;26.64;43.42
67005;HTU21D;53920;51.094;5.902;2023-04-22T08:17:48;27.05;41.36
67005;HTU21D;53920;51.094;5.902;2023-04-22T08:20:14;27.54;40.12
67005;HTU21D;53920;51.094;5.902;2023-04-22T08:22:43;27.39;39.72
67005;HTU21D;53920;51.094;5.902;2023-04-22T08:25:10;27.85;38.07
67005;HTU21D;53920;51.094;5.902;2023-04-22T08:27:38;28.03;37.74
67005;HTU21D;53920;51.094;5.902;2023-04-22T08:30:06;28.15;37.12
67005;HTU21D;53920;51.094;5.902;2023-04-22T08:32:32;28.67;36.20
67005;HTU21D;53920;51.094;5.902;2023-04-22T08:34:57;29.23;34.49
67005;HTU21D;53920;51.094;5.902;2023-04-22T08:37:24;28.97;34.84
67005;HTU21D;53920;51.094;5.902;2023-04-22T08:39:50;28.13;36.52
67005;HTU21D;53920;51.094;5.902;2023-04-22T08:42:19;28.39;36.16
67005;HTU21D;53920;51.094;5.902;2023-04-22T08:44:45;28.82;34.95
67005;HTU21D;53920;51.094;5.902;2023-04-22T08:47:13;28.39;35.88
67005;HTU21D;53920;51.094;5.902;2023-04-22T08:49:41;28.64;36.21
67005;HTU21D;53920;51.094;5.902;2023-04-22T08:52:08;29.12;35.16
67005;HTU21D;53920;51.094;5.902;2023-04-22T08:54:36;29.65;33.36
67005;HTU21D;53920;51.094;5.902;2023-04-22T08:57:03;29.77;33.49
67005;HTU21D;53920;51.094;5.902;2023-04-22T08:59:30;30.04;32.72
67005;HTU21D;53920;51.094;5.902;2023-04-22T09:01:58;30.62;31.70
67005;HTU21D;53920;51.094;5.902;2023-04-22T09:04:24;31.31;30.48
67005;HTU21D;53920;51.094;5.902;2023-04-22T09:06:50;31.61;29.52
67005;HTU21D;53920;51.094;5.902;2023-04-22T09:09:18;31.21;30.55
67005;HTU21D;53920;51.094;5.902;2023-04-22T09:11:44;30.44;31.77
67005;HTU21D;53920;51.094;5.902;2023-04-22T09:14:10;29.30;33.85
67005;HTU21D;53920;51.094;5.902;2023-04-22T09:16:46;28.56;34.82
67005;HTU21D;53920;51.094;5.902;2023-04-22T09:19:14;28.49;34.17
67005;HTU21D;53920;51.094;5.902;2023-04-22T09:21:41;29.47;32.79
67005;HTU21D;53920;51.094;5.902;2023-04-22T09:24:09;29.85;32.37
67005;HTU21D;53920;51.094;5.902;2023-04-22T09:26:40;29.53;33.04
67005;HTU21D;53920;51.094;5.902;2023-04-22T09:29:12;30.15;32.35
67005;HTU21D;53920;51.094;5.902;2023-04-22T09:31:38;30.84;30.60
67005;HTU21D;53920;51.094;5.902;2023-04-22T09:34:05;31.38;29.63
67005;HTU21D;53920;51.094;5.902;2023-04-22T09:36:32;32.10;28.37
67005;HTU21D;53920;51.094;5.902;2023-04-22T09:39:06;32.26;28.29
67005;HTU21D;53920;51.094;5.902;2023-04-22T09:41:35;32.94;27.49
67005;HTU21D;53920;51.094;5.902;2023-04-22T09:44:04;33.76;26.29
67005;HTU21D;53920;51.094;5.902;2023-04-22T09:46:34;34.22;25.53
67005;HTU21D;53920;51.094;5.902;2023-04-22T09:49:00;34.39;25.11
67005;HTU21D;53920;51.094;5.902;2023-04-22T09:51:28;34.76;23.93
67005;HTU21D;53920;51.094;5.902;2023-04-22T09:53:59;34.64;23.96
67005;HTU21D;53920;51.094;5.902;2023-04-22T09:56:43;34.82;23.32
67005;HTU21D;53920;51.094;5.902;2023-04-22T09:59:10;34.82;23.40
67005;HTU21D;53920;51.094;5.902;2023-04-22T10:01:41;33.90;24.65
67005;HTU21D;53920;51.094;5.902;2023-04-22T10:04:09;33.11;26.23
67005;HTU21D;53920;51.094;5.902;2023-04-22T10:06:36;31.38;29.03
67005;HTU21D;53920;51.094;5.902;2023-04-22T10:09:03;30.82;29.95
67005;HTU21D;53920;51.094;5.902;2023-04-22T10:11:30;30.49;29.80
67005;HTU21D;53920;51.094;5.902;2023-04-22T10:13:57;30.20;29.42
67005;HTU21D;53920;51.094;5.902;2023-04-22T10:16:28;29.93;30.13
67005;HTU21D;53920;51.094;5.902;2023-04-22T10:19:00;28.68;31.25
67005;HTU21D;53920;51.094;5.902;2023-04-22T10:21:29;27.25;33.11
67005;HTU21D;53920;51.094;5.902;2023-04-22T10:23:58;25.33;36.45
67005;HTU21D;53920;51.094;5.902;2023-04-22T10:26:58;24.21;39.24
67005;HTU21D;53920;51.094;5.902;2023-04-22T10:29:39;23.49;40.17
67005;HTU21D;53920;51.094;5.902;2023-04-22T10:34:48;22.96;41.55
67005;HTU21D;53920;51.094;5.902;2023-04-22T10:37:19;23.00;41.62
67005;HTU21D;53920;51.094;5.902;2023-04-22T10:40:24;22.97;41.65
67005;HTU21D;53920;51.094;5.902;2023-04-22T10:42:52;23.22;42.40
67005;HTU21D;53920;51.094;5.902;2023-04-22T10:45:24;23.17;41.23
67005;HTU21D;53920;51.094;5.902;2023-04-22T10:47:51;22.83;42.14
67005;HTU21D;53920;51.094;5.902;2023-04-22T10:50:25;22.42;43.30
67005;HTU21D;53920;51.094;5.902;2023-04-22T10:52:56;22.43;44.29
67005;HTU21D;53920;51.094;5.902;2023-04-22T10:55:22;22.68;43.50
67005;HTU21D;53920;51.094;5.902;2023-04-22T10:57:50;22.90;43.00
67005;HTU21D;53920;51.094;5.902;2023-04-22T11:00:22;22.83;43.20
67005;HTU21D;53920;51.094;5.902;2023-04-22T11:05:25;22.79;43.40
67005;HTU21D;53920;51.094;5.902;2023-04-22T11:08:01;22.78;43.22
67005;HTU21D;53920;51.094;5.902;2023-04-22T11:13:00;22.19;43.97
67005;HTU21D;53920;51.094;5.902;2023-04-22T11:15:29;21.97;44.14
67005;HTU21D;53920;51.094;5.902;2023-04-22T11:17:56;21.65;44.91
67005;HTU21D;53920;51.094;5.902;2023-04-22T11:20:22;21.38;45.44
67005;HTU21D;53920;51.094;5.902;2023-04-22T11:22:53;21.08;45.80
67005;HTU21D;53920;51.094;5.902;2023-04-22T11:25:20;20.98;46.38
67005;HTU21D;53920;51.094;5.902;2023-04-22T11:27:47;20.94;46.16
67005;HTU21D;53920;51.094;5.902;2023-04-22T11:30:16;20.85;45.77
67005;HTU21D;53920;51.094;5.902;2023-04-22T11:32:44;20.88;46.05
67005;HTU21D;53920;51.094;5.902;2023-04-22T11:35:16;21.18;45.54
67005;HTU21D;53920;51.094;5.902;2023-04-22T11:37:47;21.45;45.13
67005;HTU21D;53920;51.094;5.902;2023-04-22T11:40:17;21.72;44.99
67005;HTU21D;53920;51.094;5.902;2023-04-22T11:42:44;21.94;44.75
67005;HTU21D;53920;51.094;5.902;2023-04-22T11:45:10;21.89;44.42
67005;HTU21D;53920;51.094;5.902;2023-04-22T11:47:39;21.88;44.35
67005;HTU21D;53920;51.094;5.902;2023-04-22T11:50:08;22.12;44.35
67005;HTU21D;53920;51.094;5.902;2023-04-22T11:52:51;22.39;43.86
67005;HTU21D;53920;51.094;5.902;2023-04-22T11:58:06;22.39;43.44
67005;HTU21D;53920;51.094;5.902;2023-04-22T12:00:38;22.41;43.69
67005;HTU21D;53920;51.094;5.902;2023-04-22T12:03:14;22.41;43.69
67005;HTU21D;53920;51.094;5.902;2023-04-22T12:10:53;21.65;45.37
67005;HTU21D;53920;51.094;5.902;2023-04-22T12:13:20;21.46;45.81
67005;HTU21D;53920;51.094;5.902;2023-04-22T12:15:47;21.33;45.92
67005;HTU21D;53920;51.094;5.902;2023-04-22T12:18:37;21.11;46.74
67005;HTU21D;53920;51.094;5.902;2023-04-22T12:23:29;20.96;48.84
67005;HTU21D;53920;51.094;5.902;2023-04-22T12:25:56;21.05;49.71
67005;HTU21D;53920;51.094;5.902;2023-04-22T12:28:22;21.15;49.69
67005;HTU21D;53920;51.094;5.902;2023-04-22T12:30:48;21.13;49.53
67005;HTU21D;53920;51.094;5.902;2023-04-22T12:33:14;21.44;49.21
67005;HTU21D;53920;51.094;5.902;2023-04-22T12:35:40;21.53;49.11
67005;HTU21D;53920;51.094;5.902;2023-04-22T12:38:06;21.28;50.07
67005;HTU21D;53920;51.094;5.902;2023-04-22T12:40:32;20.75;51.21
67005;HTU21D;53920;51.094;5.902;2023-04-22T12:42:57;20.33;52.18
67005;HTU21D;53920;51.094;5.902;2023-04-22T12:45:24;20.22;51.75
67005;HTU21D;53920;51.094;5.902;2023-04-22T12:47:50;20.34;51.43
67005;HTU21D;53920;51.094;5.902;2023-04-22T12:50:19;20.45;49.96
67005;HTU21D;53920;51.094;5.902;2023-04-22T12:52:44;20.37;49.90
67005;HTU21D;53920;51.094;5.902;2023-04-22T12:55:10;20.29;50.52
67005;HTU21D;53920;51.094;5.902;2023-04-22T12:57:36;19.90;52.02
67005;HTU21D;53920;51.094;5.902;2023-04-22T13:00:04;19.37;54.01
67005;HTU21D;53920;51.094;5.902;2023-04-22T13:02:31;18.65;56.52
67005;HTU21D;53920;51.094;5.902;2023-04-22T13:04:57;18.05;59.26
67005;HTU21D;53920;51.094;5.902;2023-04-22T13:07:23;17.64;60.32
67005;HTU21D;53920;51.094;5.902;2023-04-22T13:09:49;17.53;60.81
67005;HTU21D;53920;51.094;5.902;2023-04-22T13:12:15;17.34;61.79
67005;HTU21D;53920;51.094;5.902;2023-04-22T13:14:41;17.24;61.43
67005;HTU21D;53920;51.094;5.902;2023-04-22T13:17:07;17.26;61.31
67005;HTU21D;53920;51.094;5.902;2023-04-22T13:19:33;17.48;60.74
67005;HTU21D;53920;51.094;5.902;2023-04-22T13:22:00;17.74;59.57
67005;HTU21D;53920;51.094;5.902;2023-04-22T13:24:26;18.03;58.63
67005;HTU21D;53920;51.094;5.902;2023-04-22T13:26:51;18.29;57.48
67005;HTU21D;53920;51.094;5.902;2023-04-22T13:29:17;18.53;56.69
67005;HTU21D;53920;51.094;5.902;2023-04-22T13:31:43;18.65;56.08
67005;HTU21D;53920;51.094;5.902;2023-04-22T13:34:10;18.77;56.04
67005;HTU21D;53920;51.094;5.902;2023-04-22T13:36:36;18.91;55.44
67005;HTU21D;53920;51.094;5.902;2023-04-22T13:39:02;18.98;55.18
67005;HTU21D;53920;51.094;5.902;2023-04-22T13:41:29;19.01;55.03
67005;HTU21D;53920;51.094;5.902;2023-04-22T13:43:56;18.91;55.65
67005;HTU21D;53920;51.094;5.902;2023-04-22T13:46:24;18.86;56.23
67005;HTU21D;53920;51.094;5.902;2023-04-22T13:48:51;18.26;59.05
67005;HTU21D;53920;51.094;5.902;2023-04-22T13:51:16;17.74;61.70
67005;HTU21D;53920;51.094;5.902;2023-04-22T13:53:42;17.32;63.73
67005;HTU21D;53920;51.094;5.902;2023-04-22T13:56:08;16.98;64.75
67005;HTU21D;53920;51.094;5.902;2023-04-22T13:58:34;16.92;65.21
67005;HTU21D;53920;51.094;5.902;2023-04-22T14:01:00;17.03;65.30
67005;HTU21D;53920;51.094;5.902;2023-04-22T14:03:26;17.10;65.04
67005;HTU21D;53920;51.094;5.902;2023-04-22T14:05:52;17.22;64.68
67005;HTU21D;53920;51.094;5.902;2023-04-22T14:08:19;17.36;63.98
67005;HTU21D;53920;51.094;5.902;2023-04-22T14:10:44;17.51;63.91
67005;HTU21D;53920;51.094;5.902;2023-04-22T14:13:10;17.72;63.37
67005;HTU21D;53920;51.094;5.902;2023-04-22T14:15:37;17.96;62.86
67005;HTU21D;53920;51.094;5.902;2023-04-22T14:18:04;18.27;62.02
67005;HTU21D;53920;51.094;5.902;2023-04-22T14:20:29;18.40;61.15
67005;HTU21D;53920;51.094;5.902;2023-04-22T14:22:55;18.32;60.93
67005;HTU21D;53920;51.094;5.902;2023-04-22T14:25:21;18.35;61.64
67005;HTU21D;53920;51.094;5.902;2023-04-22T14:27:47;18.42;61.60
67005;HTU21D;53920;51.094;5.902;2023-04-22T14:30:14;18.44;61.84
67005;HTU21D;53920;51.094;5.902;2023-04-22T14:32:41;18.37;62.70
67005;HTU21D;53920;51.094;5.902;2023-04-22T14:35:07;18.06;63.68
67005;HTU21D;53920;51.094;5.902;2023-04-22T14:37:33;17.81;64.75
67005;HTU21D;53920;51.094;5.902;2023-04-22T14:40:00;17.74;65.08
67005;HTU21D;53920;51.094;5.902;2023-04-22T14:42:26;17.74;65.15
67005;HTU21D;53920;51.094;5.902;2023-04-22T14:44:52;17.79;65.04
67005;HTU21D;53920;51.094;5.902;2023-04-22T14:47:18;17.76;64.91
67005;HTU21D;53920;51.094;5.902;2023-04-22T14:49:45;17.74;64.91
67005;HTU21D;53920;51.094;5.902;2023-04-22T14:52:11;17.75;64.26
67005;HTU21D;53920;51.094;5.902;2023-04-22T14:54:37;17.74;63.67
67005;HTU21D;53920;51.094;5.902;2023-04-22T14:57:03;17.76;63.84
67005;HTU21D;53920;51.094;5.902;2023-04-22T14:59:29;17.76;63.66
67005;HTU21D;53920;51.094;5.902;2023-04-22T15:01:55;17.74;63.62
67005;HTU21D;53920;51.094;5.902;2023-04-22T15:04:21;17.68;63.82
67005;HTU21D;53920;51.094;5.902;2023-04-22T15:06:47;17.68;63.52
67005;HTU21D;53920;51.094;5.902;2023-04-22T15:09:13;17.73;63.36
67005;HTU21D;53920;51.094;5.902;2023-04-22T15:11:39;17.64;63.36
67005;HTU21D;53920;51.094;5.902;2023-04-22T15:14:05;17.62;63.18
67005;HTU21D;53920;51.094;5.902;2023-04-22T15:16:31;17.54;63.61
67005;HTU21D;53920;51.094;5.902;2023-04-22T15:18:57;17.61;63.20
67005;HTU21D;53920;51.094;5.902;2023-04-22T15:21:23;17.60;63.63
67005;HTU21D;53920;51.094;5.902;2023-04-22T15:23:49;17.53;63.93
67005;HTU21D;53920;51.094;5.902;2023-04-22T15:26:15;17.44;64.76
67005;HTU21D;53920;51.094;5.902;2023-04-22T15:28:41;17.26;65.70
67005;HTU21D;53920;51.094;5.902;2023-04-22T15:31:06;16.95;67.34
67005;HTU21D;53920;51.094;5.902;2023-04-22T15:33:33;16.50;69.46
67005;HTU21D;53920;51.094;5.902;2023-04-22T15:35:59;16.18;71.61
67005;HTU21D;53920;51.094;5.902;2023-04-22T15:38:26;15.93;73.17
67005;HTU21D;53920;51.094;5.902;2023-04-22T15:40:52;15.76;74.12